sensor_id;sensor_type;location;lat;lon;timestamp;pressure;altitude;pressure_sealevel;temperature
84354;BMP280;74538;43.522;1.516;2024-02-28T00:02:13;100376.72;;;21.03
84354;BMP280;74538;43.522;1.516;2024-02-28T00:04:40;100381.78;;;21.01
84354;BMP280;74538;43.522;1.516;2024-02-28T00:07:06;100388.06;;;20.98
84354;BMP280;74538;43.522;1.516;2024-02-28T00:09:32;100386.56;;;20.97
84354;BMP280;74538;43.522;1.516;2024-02-28T00:11:57;100386.72;;;20.94
84354;BMP280;74538;43.522;1.516;2024-02-28T00:14:23;100391.34;;;20.93
84354;BMP280;74538;43.522;1.516;2024-02-28T00:16:49;100393.75;;;20.91
84354;BMP280;74538;43.522;1.516;2024-02-28T00:19:16;100399.59;;;20.90
84354;BMP280;74538;43.522;1.516;2024-02-28T00:21:43;100401.53;;;20.89
84354;BMP280;74538;43.522;1.516;2024-02-28T00:24:09;100398.84;;;20.89
84354;BMP280;74538;43.522;1.516;2024-02-28T00:26:35;100403.91;;;20.87
84354;BMP280;74538;43.522;1.516;2024-02-28T00:29:01;100407.06;;;20.86
84354;BMP280;74538;43.522;1.516;2024-02-28T00:31:27;100412.59;;;20.82
84354;BMP280;74538;43.522;1.516;2024-02-28T00:33:53;100415.00;;;20.80
84354;BMP280;74538;43.522;1.516;2024-02-28T00:36:18;100414.69;;;20.78
84354;BMP280;74538;43.522;1.516;2024-02-28T00:38:44;100423.94;;;20.77
84354;BMP280;74538;43.522;1.516;2024-02-28T00:41:10;100422.47;;;20.76
84354;BMP280;74538;43.522;1.516;2024-02-28T00:43:35;100416.78;;;20.74
84354;BMP280;74538;43.522;1.516;2024-02-28T00:46:01;100417.53;;;20.74
84354;BMP280;74538;43.522;1.516;2024-02-28T00:48:27;100416.47;;;20.72
84354;BMP280;74538;43.522;1.516;2024-02-28T00:50:53;100410.78;;;20.70
84354;BMP280;74538;43.522;1.516;2024-02-28T00:53:20;100409.28;;;20.69
84354;BMP280;74538;43.522;1.516;2024-02-28T00:55:46;100421.25;;;20.68
84354;BMP280;74538;43.522;1.516;2024-02-28T00:58:11;100415.88;;;20.68
84354;BMP280;74538;43.522;1.516;2024-02-28T01:00:37;100420.50;;;20.67
84354;BMP280;74538;43.522;1.516;2024-02-28T01:03:03;100410.19;;;20.66
84354;BMP280;74538;43.522;1.516;2024-02-28T01:05:34;100420.94;;;20.66
84354;BMP280;74538;43.522;1.516;2024-02-28T01:08:00;100408.66;;;20.65
84354;BMP280;74538;43.522;1.516;2024-02-28T01:10:26;100417.94;;;20.64
84354;BMP280;74538;43.522;1.516;2024-02-28T01:12:51;100402.22;;;20.62
84354;BMP280;74538;43.522;1.516;2024-02-28T01:15:17;100412.69;;;20.60
84354;BMP280;74538;43.522;1.516;2024-02-28T01:17:43;100406.69;;;20.56
84354;BMP280;74538;43.522;1.516;2024-02-28T01:20:09;100409.84;;;20.55
84354;BMP280;74538;43.522;1.516;2024-02-28T01:22:35;100411.78;;;20.54
84354;BMP280;74538;43.522;1.516;2024-02-28T01:25:02;100412.22;;;20.53
84354;BMP280;74538;43.522;1.516;2024-02-28T01:27:28;100420.31;;;20.53
84354;BMP280;74538;43.522;1.516;2024-02-28T01:29:54;100416.09;;;20.52
84354;BMP280;74538;43.522;1.516;2024-02-28T01:32:19;100417.31;;;20.51
84354;BMP280;74538;43.522;1.516;2024-02-28T01:34:45;100416.97;;;20.49
84354;BMP280;74538;43.522;1.516;2024-02-28T01:37:11;100427.75;;;20.49
84354;BMP280;74538;43.522;1.516;2024-02-28T01:39:37;100418.63;;;20.46
84354;BMP280;74538;43.522;1.516;2024-02-28T01:42:03;100420.13;;;20.47
84354;BMP280;74538;43.522;1.516;2024-02-28T01:44:29;100430.59;;;20.45
84354;BMP280;74538;43.522;1.516;2024-02-28T01:46:54;100432.53;;;20.45
84354;BMP280;74538;43.522;1.516;2024-02-28T01:49:23;100431.03;;;20.43
84354;BMP280;74538;43.522;1.516;2024-02-28T01:51:49;100428.78;;;20.42
84354;BMP280;74538;43.522;1.516;2024-02-28T01:54:16;100423.84;;;20.40
84354;BMP280;74538;43.522;1.516;2024-02-28T01:56:42;100429.66;;;20.39
84354;BMP280;74538;43.522;1.516;2024-02-28T01:59:10;100422.06;;;20.37
84354;BMP280;74538;43.522;1.516;2024-02-28T02:01:36;100415.91;;;20.37
84354;BMP280;74538;43.522;1.516;2024-02-28T02:04:03;100428.28;;;20.34
84354;BMP280;74538;43.522;1.516;2024-02-28T02:06:30;100422.91;;;20.34
84354;BMP280;74538;43.522;1.516;2024-02-28T02:08:55;100426.81;;;20.33
84354;BMP280;74538;43.522;1.516;2024-02-28T02:11:21;100430.69;;;20.32
84354;BMP280;74538;43.522;1.516;2024-02-28T02:13:51;100429.19;;;20.31
84354;BMP280;74538;43.522;1.516;2024-02-28T02:16:18;100431.13;;;20.31
84354;BMP280;74538;43.522;1.516;2024-02-28T02:18:45;100433.06;;;20.30
84354;BMP280;74538;43.522;1.516;2024-02-28T02:21:14;100430.84;;;20.29
84354;BMP280;74538;43.522;1.516;2024-02-28T02:23:41;100438.16;;;20.28
84354;BMP280;74538;43.522;1.516;2024-02-28T02:26:07;100440.06;;;20.28
84354;BMP280;74538;43.522;1.516;2024-02-28T02:28:33;100428.56;;;20.27
84354;BMP280;74538;43.522;1.516;2024-02-28T02:30:59;100436.63;;;20.27
84354;BMP280;74538;43.522;1.516;2024-02-28T02:33:24;100426.00;;;20.24
84354;BMP280;74538;43.522;1.516;2024-02-28T02:35:51;100431.84;;;20.22
84354;BMP280;74538;43.522;1.516;2024-02-28T02:38:17;100439.59;;;20.20
84354;BMP280;74538;43.522;1.516;2024-02-28T02:40:43;100432.72;;;20.19
84354;BMP280;74538;43.522;1.516;2024-02-28T02:43:09;100425.81;;;20.18
84354;BMP280;74538;43.522;1.516;2024-02-28T02:45:34;100431.19;;;20.18
84354;BMP280;74538;43.522;1.516;2024-02-28T02:48:00;100438.22;;;20.16
84354;BMP280;74538;43.522;1.516;2024-02-28T02:50:26;100432.84;;;20.16
84354;BMP280;74538;43.522;1.516;2024-02-28T02:52:51;100436.72;;;20.15
84354;BMP280;74538;43.522;1.516;2024-02-28T02:55:17;100432.22;;;20.12
84354;BMP280;74538;43.522;1.516;2024-02-28T02:57:43;100436.84;;;20.11
84354;BMP280;74538;43.522;1.516;2024-02-28T03:00:10;100435.34;;;20.10
84354;BMP280;74538;43.522;1.516;2024-02-28T03:02:35;100444.16;;;20.11
84354;BMP280;74538;43.522;1.516;2024-02-28T03:05:04;100441.63;;;20.07
84354;BMP280;74538;43.522;1.516;2024-02-28T03:07:30;100449.34;;;20.05
84354;BMP280;74538;43.522;1.516;2024-02-28T03:09:55;100453.25;;;20.04
84354;BMP280;74538;43.522;1.516;2024-02-28T03:12:21;100449.06;;;20.03
84354;BMP280;74538;43.522;1.516;2024-02-28T03:14:48;100451.00;;;20.02
84354;BMP280;74538;43.522;1.516;2024-02-28T03:17:13;100454.13;;;20.01
84354;BMP280;74538;43.522;1.516;2024-02-28T03:19:41;100448.75;;;20.01
84354;BMP280;74538;43.522;1.516;2024-02-28T03:22:06;100464.88;;;20.01
84354;BMP280;74538;43.522;1.516;2024-02-28T03:24:32;100463.09;;;19.98
84354;BMP280;74538;43.522;1.516;2024-02-28T03:27:04;100467.69;;;19.97
84354;BMP280;74538;43.522;1.516;2024-02-28T03:29:29;100464.25;;;19.97
84354;BMP280;74538;43.522;1.516;2024-02-28T03:31:55;100466.94;;;19.97
84354;BMP280;74538;43.522;1.516;2024-02-28T03:34:21;100470.53;;;19.94
84354;BMP280;74538;43.522;1.516;2024-02-28T03:36:47;100478.28;;;19.92
84354;BMP280;74538;43.522;1.516;2024-02-28T03:39:12;100482.19;;;19.91
84354;BMP280;74538;43.522;1.516;2024-02-28T03:41:38;100482.19;;;19.91
84354;BMP280;74538;43.522;1.516;2024-02-28T03:44:04;100491.41;;;19.90
84354;BMP280;74538;43.522;1.516;2024-02-28T03:46:30;100486.03;;;19.90
84354;BMP280;74538;43.522;1.516;2024-02-28T03:48:56;100486.03;;;19.90
84354;BMP280;74538;43.522;1.516;2024-02-28T03:51:22;100484.53;;;19.89
84354;BMP280;74538;43.522;1.516;2024-02-28T03:53:47;100483.00;;;19.88
84354;BMP280;74538;43.522;1.516;2024-02-28T03:56:13;100483.00;;;19.88
84354;BMP280;74538;43.522;1.516;2024-02-28T03:58:40;100475.84;;;19.85
84354;BMP280;74538;43.522;1.516;2024-02-28T04:01:05;100481.97;;;19.85
84354;BMP280;74538;43.522;1.516;2024-02-28T04:03:31;100487.78;;;19.84
84354;BMP280;74538;43.522;1.516;2024-02-28T04:05:57;100490.91;;;19.82
84354;BMP280;74538;43.522;1.516;2024-02-28T04:08:23;100492.53;;;19.80
84354;BMP280;74538;43.522;1.516;2024-02-28T04:10:49;100481.75;;;19.80
84354;BMP280;74538;43.522;1.516;2024-02-28T04:13:16;100487.16;;;19.80
84354;BMP280;74538;43.522;1.516;2024-02-28T04:15:42;100491.03;;;19.79
84354;BMP280;74538;43.522;1.516;2024-02-28T04:18:07;100501.78;;;19.79
84354;BMP280;74538;43.522;1.516;2024-02-28T04:20:33;100500.31;;;19.78
84354;BMP280;74538;43.522;1.516;2024-02-28T04:22:59;100502.66;;;19.76
84354;BMP280;74538;43.522;1.516;2024-02-28T04:25:24;100506.50;;;19.75
84354;BMP280;74538;43.522;1.516;2024-02-28T04:27:50;100502.66;;;19.76
84354;BMP280;74538;43.522;1.516;2024-02-28T04:30:15;100501.13;;;19.75
84354;BMP280;74538;43.522;1.516;2024-02-28T04:32:41;100512.03;;;19.71
84354;BMP280;74538;43.522;1.516;2024-02-28T04:35:07;100508.59;;;19.71
84354;BMP280;74538;43.522;1.516;2024-02-28T04:37:33;100513.66;;;19.68
84354;BMP280;74538;43.522;1.516;2024-02-28T04:40:00;100512.13;;;19.67
84354;BMP280;74538;43.522;1.516;2024-02-28T04:42:26;100513.03;;;19.64
84354;BMP280;74538;43.522;1.516;2024-02-28T04:44:51;100521.94;;;19.61
84354;BMP280;74538;43.522;1.516;2024-02-28T04:47:17;100524.63;;;19.61
84354;BMP280;74538;43.522;1.516;2024-02-28T04:49:42;100525.84;;;19.60
84354;BMP280;74538;43.522;1.516;2024-02-28T04:52:08;100532.38;;;19.59
84354;BMP280;74538;43.522;1.516;2024-02-28T04:54:34;100525.06;;;19.60
84354;BMP280;74538;43.522;1.516;2024-02-28T04:56:59;100524.31;;;19.59
84354;BMP280;74538;43.522;1.516;2024-02-28T04:59:25;100528.19;;;19.58
84354;BMP280;74538;43.522;1.516;2024-02-28T05:01:51;100531.75;;;19.55
84354;BMP280;74538;43.522;1.516;2024-02-28T05:04:17;100528.75;;;19.53
84354;BMP280;74538;43.522;1.516;2024-02-28T05:06:42;100532.59;;;19.52
84354;BMP280;74538;43.522;1.516;2024-02-28T05:09:08;100529.91;;;19.52
84354;BMP280;74538;43.522;1.516;2024-02-28T05:11:34;100536.50;;;19.51
84354;BMP280;74538;43.522;1.516;2024-02-28T05:14:00;100535.72;;;19.51
84354;BMP280;74538;43.522;1.516;2024-02-28T05:16:25;100532.28;;;19.50
84354;BMP280;74538;43.522;1.516;2024-02-28T05:18:51;100540.03;;;19.48
84354;BMP280;74538;43.522;1.516;2024-02-28T05:21:17;100541.25;;;19.47
84354;BMP280;74538;43.522;1.516;2024-02-28T05:23:43;100533.59;;;19.46
84354;BMP280;74538;43.522;1.516;2024-02-28T05:26:08;100537.44;;;19.45
84354;BMP280;74538;43.522;1.516;2024-02-28T05:28:34;100543.28;;;19.43
84354;BMP280;74538;43.522;1.516;2024-02-28T05:33:45;100543.72;;;19.42
84354;BMP280;74538;43.522;1.516;2024-02-28T05:36:11;100532.22;;;19.41
84354;BMP280;74538;43.522;1.516;2024-02-28T05:38:36;100534.91;;;19.41
84354;BMP280;74538;43.522;1.516;2024-02-28T05:41:02;100549.22;;;19.38
84354;BMP280;74538;43.522;1.516;2024-02-28T05:43:28;100552.31;;;19.37
84354;BMP280;74538;43.522;1.516;2024-02-28T05:45:53;100556.91;;;19.36
84354;BMP280;74538;43.522;1.516;2024-02-28T05:48:19;100556.63;;;19.34
84354;BMP280;74538;43.522;1.516;2024-02-28T05:50:45;100559.31;;;19.34
84354;BMP280;74538;43.522;1.516;2024-02-28T05:53:11;100559.31;;;19.34
84354;BMP280;74538;43.522;1.516;2024-02-28T05:55:37;100557.81;;;19.33
84354;BMP280;74538;43.522;1.516;2024-02-28T05:58:02;100568.56;;;19.33
84354;BMP280;74538;43.522;1.516;2024-02-28T06:00:28;100558.22;;;19.31
84354;BMP280;74538;43.522;1.516;2024-02-28T06:02:54;100562.09;;;19.30
84354;BMP280;74538;43.522;1.516;2024-02-28T06:05:20;100570.91;;;19.31
84354;BMP280;74538;43.522;1.516;2024-02-28T06:07:45;100570.16;;;19.30
84354;BMP280;74538;43.522;1.516;2024-02-28T06:10:11;100578.66;;;19.29
84354;BMP280;74538;43.522;1.516;2024-02-28T06:12:37;100582.50;;;19.28
84354;BMP280;74538;43.522;1.516;2024-02-28T06:15:04;100579.50;;;19.26
84354;BMP280;74538;43.522;1.516;2024-02-28T06:17:29;100594.16;;;19.25
84354;BMP280;74538;43.522;1.516;2024-02-28T06:19:55;100590.25;;;19.26
84354;BMP280;74538;43.522;1.516;2024-02-28T06:22:21;100588.78;;;19.25
84354;BMP280;74538;43.522;1.516;2024-02-28T06:24:46;100596.38;;;19.26
84354;BMP280;74538;43.522;1.516;2024-02-28T06:27:12;100596.69;;;19.28
84354;BMP280;74538;43.522;1.516;2024-02-28T06:29:39;100594.34;;;19.30
84354;BMP280;74538;43.522;1.516;2024-02-28T06:32:06;100605.72;;;19.35
84354;BMP280;74538;43.522;1.516;2024-02-28T06:34:32;100609.91;;;19.36
84354;BMP280;74538;43.522;1.516;2024-02-28T06:36:58;100617.88;;;19.39
84354;BMP280;74538;43.522;1.516;2024-02-28T06:39:23;100605.19;;;19.40
84354;BMP280;74538;43.522;1.516;2024-02-28T06:41:49;100612.81;;;19.41
84354;BMP280;74538;43.522;1.516;2024-02-28T06:44:18;100618.53;;;19.43
84354;BMP280;74538;43.522;1.516;2024-02-28T06:46:44;100616.56;;;19.44
84354;BMP280;74538;43.522;1.516;2024-02-28T06:49:10;100613.47;;;19.45
84354;BMP280;74538;43.522;1.516;2024-02-28T06:51:35;100611.53;;;19.46
84354;BMP280;74538;43.522;1.516;2024-02-28T06:54:01;100616.16;;;19.45
84354;BMP280;74538;43.522;1.516;2024-02-28T06:56:27;100625.38;;;19.44
84354;BMP280;74538;43.522;1.516;2024-02-28T06:58:53;100625.38;;;19.44
84354;BMP280;74538;43.522;1.516;2024-02-28T07:01:18;100631.50;;;19.45
84354;BMP280;74538;43.522;1.516;2024-02-28T07:03:44;100638.44;;;19.46
84354;BMP280;74538;43.522;1.516;2024-02-28T07:06:11;100643.38;;;19.47
84354;BMP280;74538;43.522;1.516;2024-02-28T07:08:37;100638.63;;;19.51
84354;BMP280;74538;43.522;1.516;2024-02-28T07:11:02;100633.03;;;19.58
84354;BMP280;74538;43.522;1.516;2024-02-28T07:13:29;100642.06;;;19.64
84354;BMP280;74538;43.522;1.516;2024-02-28T07:15:54;100644.22;;;19.70
84354;BMP280;74538;43.522;1.516;2024-02-28T07:18:20;100660.88;;;19.77
84354;BMP280;74538;43.522;1.516;2024-02-28T07:20:46;100650.66;;;19.85
84354;BMP280;74538;43.522;1.516;2024-02-28T07:23:12;100658.47;;;19.92
84354;BMP280;74538;43.522;1.516;2024-02-28T07:25:37;100659.44;;;19.98
84354;BMP280;74538;43.522;1.516;2024-02-28T07:28:03;100665.34;;;20.05
84354;BMP280;74538;43.522;1.516;2024-02-28T07:30:29;100655.09;;;20.13
84354;BMP280;74538;43.522;1.516;2024-02-28T07:32:55;100659.47;;;20.20
84354;BMP280;74538;43.522;1.516;2024-02-28T07:35:20;100662.38;;;20.25
84354;BMP280;74538;43.522;1.516;2024-02-28T07:37:47;100657.63;;;20.29
84354;BMP280;74538;43.522;1.516;2024-02-28T07:40:12;100652.13;;;20.33
84354;BMP280;74538;43.522;1.516;2024-02-28T07:42:38;100666.97;;;20.37
84354;BMP280;74538;43.522;1.516;2024-02-28T07:45:04;100656.38;;;20.43
84354;BMP280;74538;43.522;1.516;2024-02-28T07:47:30;100663.91;;;20.48
84354;BMP280;74538;43.522;1.516;2024-02-28T07:49:56;100669.16;;;20.52
84354;BMP280;74538;43.522;1.516;2024-02-28T07:52:22;100673.69;;;20.55
84354;BMP280;74538;43.522;1.516;2024-02-28T07:54:47;100675.91;;;20.56
84354;BMP280;74538;43.522;1.516;2024-02-28T07:57:14;100689.28;;;20.60
84354;BMP280;74538;43.522;1.516;2024-02-28T07:59:43;100671.94;;;20.61
84354;BMP280;74538;43.522;1.516;2024-02-28T08:02:09;100682.56;;;20.64
84354;BMP280;74538;43.522;1.516;2024-02-28T08:04:37;100679.78;;;20.68
84354;BMP280;74538;43.522;1.516;2024-02-28T08:07:03;100676.31;;;20.67
84354;BMP280;74538;43.522;1.516;2024-02-28T08:09:28;100677.09;;;20.68
84354;BMP280;74538;43.522;1.516;2024-02-28T08:11:54;100690.53;;;20.68
84354;BMP280;74538;43.522;1.516;2024-02-28T08:14:20;100688.47;;;20.72
84354;BMP280;74538;43.522;1.516;2024-02-28T08:16:46;100695.97;;;20.77
84354;BMP280;74538;43.522;1.516;2024-02-28T08:19:12;100699.63;;;20.83
84354;BMP280;74538;43.522;1.516;2024-02-28T08:21:37;100691.28;;;20.90
84354;BMP280;74538;43.522;1.516;2024-02-28T08:24:03;100695.22;;;20.98
84354;BMP280;74538;43.522;1.516;2024-02-28T08:26:33;100703.34;;;21.07
84354;BMP280;74538;43.522;1.516;2024-02-28T08:28:59;100693.06;;;21.15
84354;BMP280;74538;43.522;1.516;2024-02-28T08:31:25;100702.38;;;21.23
84354;BMP280;74538;43.522;1.516;2024-02-28T08:33:50;100709.75;;;21.32
84354;BMP280;74538;43.522;1.516;2024-02-28T08:36:17;100709.19;;;21.37
84354;BMP280;74538;43.522;1.516;2024-02-28T08:38:43;100715.22;;;21.41
84354;BMP280;74538;43.522;1.516;2024-02-28T08:41:09;100721.22;;;21.45
84354;BMP280;74538;43.522;1.516;2024-02-28T08:43:40;100719.56;;;21.47
84354;BMP280;74538;43.522;1.516;2024-02-28T08:46:06;100718.66;;;21.50
84354;BMP280;74538;43.522;1.516;2024-02-28T08:48:32;100721.56;;;21.56
84354;BMP280;74538;43.522;1.516;2024-02-28T08:50:58;100720.50;;;21.63
84354;BMP280;74538;43.522;1.516;2024-02-28T08:53:24;100726.38;;;21.70
84354;BMP280;74538;43.522;1.516;2024-02-28T08:55:49;100723.41;;;21.77
84354;BMP280;74538;43.522;1.516;2024-02-28T08:58:15;100718.94;;;21.83
84354;BMP280;74538;43.522;1.516;2024-02-28T09:00:41;100714.75;;;21.91
84354;BMP280;74538;43.522;1.516;2024-02-28T09:03:06;100713.69;;;21.98
84354;BMP280;74538;43.522;1.516;2024-02-28T09:05:32;100711.94;;;22.04
84354;BMP280;74538;43.522;1.516;2024-02-28T09:07:58;100715.09;;;22.12
84354;BMP280;74538;43.522;1.516;2024-02-28T09:10:24;100715.97;;;22.18
84354;BMP280;74538;43.522;1.516;2024-02-28T09:12:50;100715.72;;;22.25
84354;BMP280;74538;43.522;1.516;2024-02-28T09:15:16;100726.22;;;22.32
84354;BMP280;74538;43.522;1.516;2024-02-28T09:17:41;100714.38;;;22.39
84354;BMP280;74538;43.522;1.516;2024-02-28T09:20:07;100718.69;;;22.45
84354;BMP280;74538;43.522;1.516;2024-02-28T09:22:33;100708.03;;;22.51
84354;BMP280;74538;43.522;1.516;2024-02-28T09:25:00;100712.09;;;22.55
84354;BMP280;74538;43.522;1.516;2024-02-28T09:27:29;100709.69;;;22.57
84354;BMP280;74538;43.522;1.516;2024-02-28T09:29:54;100689.56;;;22.58
84354;BMP280;74538;43.522;1.516;2024-02-28T09:32:20;100685.97;;;22.61
84354;BMP280;74538;43.522;1.516;2024-02-28T09:34:46;100672.31;;;22.65
84354;BMP280;74538;43.522;1.516;2024-02-28T09:37:11;100674.81;;;22.68
84354;BMP280;74538;43.522;1.516;2024-02-28T09:39:43;100681.13;;;22.75
84354;BMP280;74538;43.522;1.516;2024-02-28T09:42:09;100690.13;;;22.81
84354;BMP280;74538;43.522;1.516;2024-02-28T09:44:36;100686.84;;;22.86
84354;BMP280;74538;43.522;1.516;2024-02-28T09:47:02;100690.41;;;22.92
84354;BMP280;74538;43.522;1.516;2024-02-28T09:49:31;100693.25;;;22.97
84354;BMP280;74538;43.522;1.516;2024-02-28T09:51:58;100690.66;;;23.03
84354;BMP280;74538;43.522;1.516;2024-02-28T09:54:24;100688.84;;;23.09
84354;BMP280;74538;43.522;1.516;2024-02-28T09:56:51;100695.13;;;23.15
84354;BMP280;74538;43.522;1.516;2024-02-28T09:59:20;100689.06;;;23.20
84354;BMP280;74538;43.522;1.516;2024-02-28T10:01:56;100691.16;;;23.25
84354;BMP280;74538;43.522;1.516;2024-02-28T10:04:26;100692.03;;;23.31
84354;BMP280;74538;43.522;1.516;2024-02-28T10:06:53;100693.38;;;23.36
84354;BMP280;74538;43.522;1.516;2024-02-28T10:09:19;100704.31;;;23.41
84354;BMP280;74538;43.522;1.516;2024-02-28T10:11:45;100715.16;;;23.41
84354;BMP280;74538;43.522;1.516;2024-02-28T10:14:14;100710.09;;;23.25
84354;BMP280;74538;43.522;1.516;2024-02-28T10:16:42;100722.78;;;23.10
84354;BMP280;74538;43.522;1.516;2024-02-28T10:19:07;100731.22;;;23.03
84354;BMP280;74538;43.522;1.516;2024-02-28T10:21:33;100725.53;;;23.01
84354;BMP280;74538;43.522;1.516;2024-02-28T10:23:59;100728.50;;;23.03
84354;BMP280;74538;43.522;1.516;2024-02-28T10:26:25;100709.13;;;23.04
84354;BMP280;74538;43.522;1.516;2024-02-28T10:28:51;100723.53;;;23.10
84354;BMP280;74538;43.522;1.516;2024-02-28T10:31:16;100729.81;;;23.17
84354;BMP280;74538;43.522;1.516;2024-02-28T10:33:42;100731.47;;;23.23
84354;BMP280;74538;43.522;1.516;2024-02-28T10:36:08;100720.31;;;23.30
84354;BMP280;74538;43.522;1.516;2024-02-28T10:38:34;100718.78;;;23.38
84354;BMP280;74538;43.522;1.516;2024-02-28T10:41:01;100721.16;;;23.45
84354;BMP280;74538;43.522;1.516;2024-02-28T10:43:28;100727.72;;;23.54
84354;BMP280;74538;43.522;1.516;2024-02-28T10:46:00;100743.59;;;23.61
84354;BMP280;74538;43.522;1.516;2024-02-28T10:48:27;100725.56;;;23.67
84354;BMP280;74538;43.522;1.516;2024-02-28T10:50:53;100713.19;;;23.75
84354;BMP280;74538;43.522;1.516;2024-02-28T10:53:42;100704.97;;;23.84
84354;BMP280;74538;43.522;1.516;2024-02-28T10:56:13;100712.75;;;23.91
84354;BMP280;74538;43.522;1.516;2024-02-28T10:58:51;100706.97;;;23.98
84354;BMP280;74538;43.522;1.516;2024-02-28T11:01:18;100695.06;;;24.05
84354;BMP280;74538;43.522;1.516;2024-02-28T11:03:44;100696.34;;;24.09
84354;BMP280;74538;43.522;1.516;2024-02-28T11:06:20;100706.09;;;24.16
84354;BMP280;74538;43.522;1.516;2024-02-28T11:08:51;100707.41;;;24.20
84354;BMP280;74538;43.522;1.516;2024-02-28T11:11:22;100716.09;;;24.24
84354;BMP280;74538;43.522;1.516;2024-02-28T11:13:55;100712.28;;;24.31
84354;BMP280;74538;43.522;1.516;2024-02-28T11:16:34;100717.34;;;24.38
84354;BMP280;74538;43.522;1.516;2024-02-28T11:19:01;100706.59;;;24.44
84354;BMP280;74538;43.522;1.516;2024-02-28T11:21:29;100708.94;;;24.51
84354;BMP280;74538;43.522;1.516;2024-02-28T11:23:59;100707.53;;;24.55
84354;BMP280;74538;43.522;1.516;2024-02-28T11:26:25;100698.28;;;24.62
84354;BMP280;74538;43.522;1.516;2024-02-28T11:28:51;100688.75;;;24.66
84354;BMP280;74538;43.522;1.516;2024-02-28T11:31:17;100696.22;;;24.72
84354;BMP280;74538;43.522;1.516;2024-02-28T11:33:44;100700.97;;;24.77
84354;BMP280;74538;43.522;1.516;2024-02-28T11:36:11;100694.16;;;24.81
84354;BMP280;74538;43.522;1.516;2024-02-28T11:38:38;100704.31;;;24.86
84354;BMP280;74538;43.522;1.516;2024-02-28T11:41:05;100703.41;;;24.89
84354;BMP280;74538;43.522;1.516;2024-02-28T11:43:31;100706.41;;;24.91
84354;BMP280;74538;43.522;1.516;2024-02-28T11:45:58;100703.69;;;24.91
84354;BMP280;74538;43.522;1.516;2024-02-28T11:48:25;100709.84;;;24.92
84354;BMP280;74538;43.522;1.516;2024-02-28T11:50:51;100700.69;;;24.89
84354;BMP280;74538;43.522;1.516;2024-02-28T11:53:18;100684.16;;;24.87
84354;BMP280;74538;43.522;1.516;2024-02-28T11:55:45;100679.66;;;24.84
84354;BMP280;74538;43.522;1.516;2024-02-28T11:58:13;100684.06;;;24.82
84354;BMP280;74538;43.522;1.516;2024-02-28T12:00:48;100685.75;;;24.79
84354;BMP280;74538;43.522;1.516;2024-02-28T12:03:14;100697.53;;;24.76
84354;BMP280;74538;43.522;1.516;2024-02-28T12:05:43;100694.56;;;24.74
84354;BMP280;74538;43.522;1.516;2024-02-28T12:08:10;100683.88;;;24.71
84354;BMP280;74538;43.522;1.516;2024-02-28T12:10:36;100685.56;;;24.68
84354;BMP280;74538;43.522;1.516;2024-02-28T12:13:02;100678.66;;;24.67
84354;BMP280;74538;43.522;1.516;2024-02-28T12:15:31;100680.81;;;24.63
84354;BMP280;74538;43.522;1.516;2024-02-28T12:17:57;100675.38;;;24.63
84354;BMP280;74538;43.522;1.516;2024-02-28T12:20:25;100669.41;;;24.59
84354;BMP280;74538;43.522;1.516;2024-02-28T12:22:51;100676.78;;;24.58
84354;BMP280;74538;43.522;1.516;2024-02-28T12:25:17;100667.63;;;24.56
84354;BMP280;74538;43.522;1.516;2024-02-28T12:27:42;100668.56;;;24.53
84354;BMP280;74538;43.522;1.516;2024-02-28T12:30:08;100671.75;;;24.51
84354;BMP280;74538;43.522;1.516;2024-02-28T12:32:34;100669.97;;;24.48
84354;BMP280;74538;43.522;1.516;2024-02-28T12:35:00;100674.38;;;24.46
84354;BMP280;74538;43.522;1.516;2024-02-28T12:37:25;100671.38;;;24.44
84354;BMP280;74538;43.522;1.516;2024-02-28T12:39:51;100662.97;;;24.42
84354;BMP280;74538;43.522;1.516;2024-02-28T12:42:18;100663.41;;;24.40
84354;BMP280;74538;43.522;1.516;2024-02-28T12:44:43;100662.41;;;24.38
84354;BMP280;74538;43.522;1.516;2024-02-28T12:47:12;100654.94;;;24.33
84354;BMP280;74538;43.522;1.516;2024-02-28T12:49:38;100661.28;;;24.29
84354;BMP280;74538;43.522;1.516;2024-02-28T12:52:03;100648.97;;;24.28
84354;BMP280;74538;43.522;1.516;2024-02-28T12:54:29;100659.78;;;24.28
84354;BMP280;74538;43.522;1.516;2024-02-28T12:56:55;100644.28;;;24.29
84354;BMP280;74538;43.522;1.516;2024-02-28T12:59:21;100643.53;;;24.28
84354;BMP280;74538;43.522;1.516;2024-02-28T13:01:47;100642.78;;;24.28
84354;BMP280;74538;43.522;1.516;2024-02-28T13:04:13;100643.53;;;24.28
84354;BMP280;74538;43.522;1.516;2024-02-28T13:06:39;100638.13;;;24.28
84354;BMP280;74538;43.522;1.516;2024-02-28T13:09:05;100645.03;;;24.29
84354;BMP280;74538;43.522;1.516;2024-02-28T13:11:37;100646.81;;;24.33
84354;BMP280;74538;43.522;1.516;2024-02-28T13:14:03;100637.19;;;24.32
84354;BMP280;74538;43.522;1.516;2024-02-28T13:16:30;100633.25;;;24.33
84354;BMP280;74538;43.522;1.516;2024-02-28T13:18:56;100637.00;;;24.35
84354;BMP280;74538;43.522;1.516;2024-02-28T13:21:21;100628.13;;;24.35
84354;BMP280;74538;43.522;1.516;2024-02-28T13:23:47;100626.91;;;24.36
84354;BMP280;74538;43.522;1.516;2024-02-28T13:26:13;100632.13;;;24.39
84354;BMP280;74538;43.522;1.516;2024-02-28T13:28:46;100633.59;;;24.40
84354;BMP280;74538;43.522;1.516;2024-02-28T13:31:12;100631.66;;;24.41
84354;BMP280;74538;43.522;1.516;2024-02-28T13:33:38;100614.97;;;24.42
84354;BMP280;74538;43.522;1.516;2024-02-28T13:36:04;100625.06;;;24.42
84354;BMP280;74538;43.522;1.516;2024-02-28T13:38:30;100603.38;;;24.42
84354;BMP280;74538;43.522;1.516;2024-02-28T13:40:56;100610.28;;;24.43
84354;BMP280;74538;43.522;1.516;2024-02-28T13:43:21;100614.47;;;24.44
84354;BMP280;74538;43.522;1.516;2024-02-28T13:45:48;100617.94;;;24.44
84354;BMP280;74538;43.522;1.516;2024-02-28T13:48:16;100609.34;;;24.46
84354;BMP280;74538;43.522;1.516;2024-02-28T13:50:43;100617.72;;;24.48
84354;BMP280;74538;43.522;1.516;2024-02-28T13:53:09;100611.56;;;24.47
84354;BMP280;74538;43.522;1.516;2024-02-28T13:55:34;100612.31;;;24.48